Tiempo atmosférico en la estación meteorológica de Telde, Centro Forestal Doramas, Las Palmas (344 m.)



Fecha
DESCASC
Temp. máxima en grados centígrados (hora)
DESCASC
Temp. mínima en grados centígrados (hora)
DESCASC
Temp. media en grados centígrados
DESCASC
Racha de viento máxima en m/sg (hora)
DESCASC
Velocidad máxima media en intervalos de 10 minutos(hora)
DESCASC
Precipitaciones diarias en mm
DESCASC
Precipitaciones de 00:00 a 06:00 en mm
DESCASC
Precipitaciones de 06:00 a 12:00 en mm
DESCASC
Precipitaciones de 12:00 a 18:00 en mm
DESCASC
Precipitaciones de 18:00 a 24:00 en mm
DESCASC
11-08-2020 -- (--) -- (--) -- -- (--) -- (--) -- -- 0 0 0
10-08-2020 24.9 (16:00) 19.8 (10:10) 22.3 13.89 (19:00) 8.33 (02:00) 0 0 0 0 0
09-08-2020 -- (--) -- (--) -- -- (--) -- (--) -- -- 0 0 0
08-08-2020 26.1 (15:10) 19.4 (01:20) 22.8 13.89 (10:00) 8.33 (12:40) 0 0 0 0 0
07-08-2020 25.9 (15:20) 19.2 (00:00) 22.6 13.06 (20:00) 7.78 (16:40) 0 0 0 0 0
06-08-2020 26.4 (15:00) 19 (00:00) 22.7 10.56 (09:40) 7.5 (03:50) 0 0 0 0 0
05-08-2020 29.3 (15:50) 19.7 (00:00) 24.5 15 (00:20) 9.17 (00:20) 0 0 0 0 0
04-08-2020 28.5 (14:40) 19.9 (07:40) 24.2 13.33 (07:50) 8.89 (07:20) 0 0 0 0 0
03-08-2020 31.6 (14:00) 24.5 (00:20) 28.1 14.72 (17:10) 8.06 (17:10) 0 0 0 0 0
02-08-2020 32.3 (17:40) 21.5 (00:00) 26.9 11.67 (21:30) 7.78 (23:50) 0 0 0 0 0
01-08-2020 27.9 (14:50) 19.3 (00:00) 23.6 11.39 (18:00) 7.78 (18:00) 0 0 0 0 0
31-07-2020 25.8 (16:50) 18.7 (07:10) 22.3 10.28 (19:00) 6.11 (18:50) 0 0 0 0 0
30-07-2020 24.9 (14:30) 18.2 (00:00) 21.6 12.78 (04:00) 7.78 (03:00) 0 0 0 0 0
29-07-2020 25.2 (14:00) 19.2 (00:00) 22.2 14.17 (19:30) 8.33 (00:40) 0 0 0 0 0
28-07-2020 25.3 (14:40) 19.6 (00:00) 22.4 15.28 (23:00) 8.89 (22:40) 0 0 0 0 0
27-07-2020 27.8 (14:10) 18.9 (00:00) 23.3 13.89 (00:50) 8.89 (05:30) 0 0 0 0 0
26-07-2020 25.5 (14:00) 19.4 (00:00) 22.4 13.61 (21:30) 8.89 (10:30) 0 0 0 0 0
25-07-2020 29.8 (18:00) 20.1 (00:00) 24.9 11.39 (22:50) 8.06 (22:30) 0 0 0 0 0
24-07-2020 28.3 (16:40) 19.9 (00:00) 24.1 12.22 (05:40) 9.17 (05:40) 0 0 0 0 0
23-07-2020 29.5 (14:30) 20.1 (00:00) 24.8 10.28 (16:00) 7.22 (16:00) 0 0 0 0 0
22-07-2020 25.4 (14:20) 19 (00:00) 22.2 13.89 (00:50) 8.33 (01:40) 0 0 0 0 0
21-07-2020 24.9 (13:30) 18.9 (00:00) 21.9 14.17 (10:00) 8.89 (02:00) 0 0 0 0 0
20-07-2020 29.2 (05:30) 20.1 (00:00) 24.7 14.44 (19:30) 10.28 (19:00) 0 0 0 0 0
19-07-2020 35.4 (16:50) 26.8 (00:00) 31.1 11.94 (15:20) 7.22 (21:10) 0 0 0 0 0
18-07-2020 34.9 (16:10) 23.8 (00:00) 29.4 9.17 (15:20) 6.11 (15:20) 0 0 0 0 0
17-07-2020 32.9 (17:40) 19.6 (00:00) 26.3 6.67 (20:00) 4.72 (20:00) 0 0 0 0 0
16-07-2020 30.7 (17:30) 18 (00:00) 24.4 6.67 (02:50) 3.89 (02:10) 0 0 0 0 0
15-07-2020 28.6 (12:20) 21.6 (00:00) 25.1 12.5 (04:00) 8.61 (16:50) 0 0 0 0 0

Gráficas

Temp. máximas Temp. mínimas Temp. medias Precipitaciones Rachas de viento máximas Velocidades máximas media en intervalos de 10 minutos

Datos horarios

Fecha y hora oficial Temperatura (ºC) Velocidad del viento (km/h) Dirección del viento Racha (km/h) Dirección de racha Precipitación (mm) Presión (hPa) Tendencia (hPa) Humedad (%)
2020-08-13 23:00:00 20.1 21 Noroeste 43 Noroeste 0 -- -- 74
2020-08-13 22:00:00 20.1 18 Noroeste 48 Noroeste 0 -- -- 74
2020-08-13 21:00:00 20.2 21 Noroeste 38 Noroeste 0 -- -- 75
2020-08-13 20:00:00 21.8 21 Noroeste 39 Noroeste 0 -- -- 69
2020-08-13 19:00:00 23 23 Norte 40 Noroeste 0 -- -- 66
2020-08-13 18:00:00 24 22 Norte 38 Noroeste -- -- -- 61
2020-08-13 17:00:00 24.8 18 Norte 39 Norte 0 -- -- 58
2020-08-13 16:00:00 25.1 26 Norte 40 Norte 0 -- -- 56
2020-08-13 15:00:00 24.6 23 Norte 35 Norte 0 -- -- 59
2020-08-13 14:00:00 25 18 Norte 35 Noroeste 0 -- -- 58
2020-08-13 13:00:00 23.6 17 Norte 43 Noroeste 0 -- -- 64
2020-08-13 12:00:00 22.5 21 Noroeste 40 Noroeste 0 -- -- 63
2020-08-13 11:00:00 22.3 22 Norte 38 Noroeste 0 -- -- 67
2020-08-13 10:00:00 20.9 17 Noroeste 36 Noroeste 0 -- -- 72
2020-08-13 09:00:00 20.1 16 Noroeste 35 Noroeste 0 -- -- 74
2020-08-13 08:00:00 19.6 15 Noroeste 32 Noroeste 0 -- -- 74
2020-08-13 07:00:00 19.6 19 Noroeste 35 Noroeste 0 -- -- 76
2020-08-13 06:00:00 20 18 Noroeste 38 Norte 0 -- -- 77
2020-08-13 05:00:00 19.8 13 Noroeste 35 Oeste 0 -- -- 77
2020-08-13 04:00:00 19.5 15 Noroeste 34 Noroeste 0 -- -- 76
2020-08-13 03:00:00 19.7 18 Noroeste 36 Noroeste 0 -- -- 79
2020-08-13 02:00:00 19.9 17 Oeste 33 Noroeste 0 -- -- 74
2020-08-13 01:00:00 20 21 Noroeste 35 Noroeste 0 -- -- 75
2020-08-13 00:00:00 20.5 22 Noroeste 34 Noroeste 0 -- -- 74
2020-08-12 23:00:00 20.3 13 Noroeste 30 Noroeste 0 -- -- 73
2020-08-12 22:00:00 20.4 14 Noroeste 33 Oeste 0 -- -- 73
2020-08-12 21:00:00 20.7 19 Noroeste 37 Norte 0 -- -- 73
2020-08-12 20:00:00 21.8 23 Norte 37 Noroeste 0 -- -- 71
2020-08-12 19:00:00 23 20 Noroeste 35 Noroeste 0 -- -- 64
2020-08-12 18:00:00 23.7 21 Norte 39 Noroeste 0 -- -- 63
2020-08-12 17:00:00 24.2 19 Noroeste 40 Noroeste 0 -- -- 60
2020-08-12 16:00:00 24.6 21 Noroeste 41 Noroeste 0 -- -- 58
2020-08-12 15:00:00 24.9 22 Noroeste 43 Noroeste 0 -- -- 58
2020-08-12 14:00:00 24.9 21 Norte 39 Noroeste 0 -- -- 58
2020-08-12 13:00:00 24.2 23 Norte 37 Noroeste 0 -- -- 62
2020-08-12 12:00:00 22.5 17 Noroeste 38 Noroeste 0 -- -- 65
2020-08-12 11:00:00 22.6 18 Noroeste 39 Noroeste 0 -- -- 68
2020-08-12 10:00:00 -- -- -- -- -- -- -- -- --
2020-08-12 09:00:00 20.7 18 Noroeste 34 Oeste 0 -- -- 71
2020-08-12 08:00:00 19.9 22 Noroeste 40 Noroeste 0 -- -- 75
2020-08-12 07:00:00 19.7 17 Noroeste 40 Oeste 0 -- -- 76
2020-08-12 06:00:00 -- -- -- -- -- -- -- -- --
2020-08-12 05:00:00 19.9 17 Noroeste 39 Noroeste 0 -- -- 72
2020-08-12 04:00:00 19.9 20 Noroeste 41 Noroeste 0 -- -- 75
2020-08-12 03:00:00 20.3 -- -- -- -- 0 -- -- 74
2020-08-12 02:00:00 20.1 20 Noroeste 39 Noroeste 0 -- -- 76
2020-08-12 01:00:00 20.1 18 Noroeste 39 Noroeste 0 -- -- 74
2020-08-12 00:00:00 20.5 21 Noroeste 37 Noroeste 0 -- -- 75
2020-08-11 23:00:00 20.3 18 Noroeste 33 Noroeste 0 -- -- 79
2020-08-11 22:00:00 21 19 Noroeste 37 Noroeste 0 -- -- 74
2020-08-11 21:00:00 21 18 Noroeste 40 Noroeste 0 -- -- 70
2020-08-11 20:00:00 22.1 22 Noroeste 40 Noroeste 0 -- -- 65
2020-08-11 19:00:00 23.5 -- -- -- -- 0 -- -- 61
2020-08-11 18:00:00 24.6 22 Norte 39 Noroeste 0 -- -- 55
2020-08-11 17:00:00 24.5 25 Noroeste 45 Norte 0 -- -- 57
2020-08-11 16:00:00 24.9 25 Norte 40 Norte 0 -- -- 55
2020-08-11 15:00:00 25.3 26 Norte 41 Noroeste 0 -- -- 53
2020-08-11 14:00:00 24.3 19 Noroeste 41 Norte 0 -- -- 58
2020-08-11 13:00:00 24.5 19 Norte 39 Noroeste 0 -- -- 60
2020-08-11 12:00:00 23.1 20 Norte 39 Oeste 0 -- -- 61
2020-08-11 11:00:00 21.4 18 Noroeste 37 Oeste 0 -- -- 72
2020-08-11 10:00:00 20.6 22 Noroeste 33 Noroeste 0 -- -- 72
2020-08-11 09:00:00 20.1 20 Noroeste 35 Noroeste 0 -- -- 76
2020-08-11 08:00:00 19.9 18 Noroeste 35 Noroeste 0 -- -- 77
2020-08-11 07:00:00 20 17 Noroeste 38 Oeste 0 -- -- 78
2020-08-11 06:00:00 -- -- -- -- -- -- -- -- --
2020-08-11 05:00:00 20.2 18 Noroeste 40 Noroeste 0 -- -- 74
2020-08-11 04:00:00 20.2 21 Noroeste 41 Oeste 0 -- -- 73
2020-08-11 03:00:00 20.2 16 Noroeste 38 Oeste 0 -- -- 74
2020-08-11 02:00:00 19.9 19 Noroeste 40 Oeste 0 -- -- 74
2020-08-11 01:00:00 20.2 17 Noroeste 35 Noroeste 0 -- -- 73
2020-08-11 00:00:00 20.1 23 Noroeste 40 Noroeste 0 -- -- 75
2020-08-10 23:00:00 20.2 24 Noroeste 39 Oeste 0 -- -- 74
2020-08-10 22:00:00 20.8 21 Noroeste 42 Noroeste 0 -- -- 74
2020-08-10 21:00:00 21.2 24 Noroeste 40 Norte 0 -- -- 68
2020-08-10 20:00:00 21.8 29 Norte 43 Noroeste 0 -- -- 67
2020-08-10 19:00:00 22.3 24 Noroeste 50 Norte 0 -- -- 70
2020-08-10 18:00:00 23.5 24 Noroeste 47 Noroeste 0 -- -- 68
2020-08-10 17:00:00 24.5 25 Norte 44 Norte 0 -- -- 62
2020-08-10 16:00:00 24.9 24 Norte 41 Noroeste 0 -- -- 60
2020-08-10 15:00:00 24.6 27 Norte 41 Norte 0 -- -- 61
2020-08-10 14:00:00 24.5 20 Noroeste 41 Noroeste 0 -- -- 63
2020-08-10 13:00:00 23.1 22 Noroeste 40 Noroeste 0 -- -- 70
2020-08-10 12:00:00 21.7 14 Noroeste 32 Norte 0 -- -- 77
2020-08-10 11:00:00 20.9 19 Noroeste 31 Noroeste 0 -- -- 80
2020-08-10 10:00:00 20.1 22 Norte 36 Noroeste 0 -- -- 86
2020-08-10 09:00:00 20.1 18 Noroeste 36 Noroeste 0 -- -- 82
2020-08-10 08:00:00 19.9 19 Noroeste 47 Noroeste 0 -- -- 82
2020-08-10 07:00:00 20.6 13 Noroeste 41 Noroeste 0 -- -- 78
2020-08-10 06:00:00 20.6 22 Noroeste 45 Oeste 0 -- -- 78
2020-08-10 05:00:00 20.6 25 Noroeste 44 Noroeste 0 -- -- 75
2020-08-10 04:00:00 20.5 21 Oeste 39 Norte 0 -- -- 75
2020-08-10 03:00:00 20.2 19 Noroeste 45 Noroeste 0 -- -- 75
2020-08-10 02:00:00 20.3 30 Noroeste 48 Noroeste 0 -- -- 72
2020-08-10 01:00:00 20.4 23 Noroeste 44 Noroeste 0 -- -- 72
2020-08-10 00:00:00 20.4 24 Noroeste 39 Noroeste 0 -- -- 75
2020-08-09 23:00:00 20.2 22 Noroeste 48 Noroeste 0 -- -- 76
2020-08-09 22:00:00 20.2 20 Noroeste 48 Norte 0 -- -- 75
2020-08-09 21:00:00 20.6 27 Norte 48 Norte 0 -- -- 72
2020-08-09 20:00:00 22.4 23 Norte 38 Noroeste 0 -- -- 66
2020-08-09 19:00:00 23.6 26 Noroeste 38 Noroeste 0 -- -- 63
2020-08-09 18:00:00 25.9 24 Norte 39 Norte 0 -- -- 56
2020-08-09 17:00:00 26.7 19 Norte 38 Norte 0 -- -- 52
2020-08-09 16:00:00 27.3 22 Norte 38 Norte 0 -- -- 49
2020-08-09 15:00:00 27.7 18 Norte 32 Noroeste 0 -- -- 46
2020-08-09 14:00:00 27.3 21 Norte 34 Norte 0 -- -- 49
2020-08-09 13:00:00 24.6 24 Norte 41 Norte 0 -- -- 60
2020-08-09 12:00:00 25 24 Norte 39 Noroeste 0 -- -- 55
2020-08-09 11:00:00 23.3 22 Norte 48 Norte 0 -- -- 63
2020-08-09 10:00:00 21.9 27 Norte 51 Norte 0 -- -- 65
2020-08-09 09:00:00 20.2 28 Noroeste 54 Noroeste 0 -- -- 75
2020-08-09 08:00:00 19.5 20 Noroeste 46 Noroeste 0 -- -- 79
2020-08-09 07:00:00 19.3 27 Norte 53 Noroeste 0 -- -- 78
2020-08-09 06:00:00 19.4 25 Norte 48 Noroeste 0 -- -- 79
2020-08-09 05:00:00 19.5 27 Noroeste 46 Norte 0 -- -- 79
2020-08-09 04:00:00 19.7 27 Noroeste 49 Noroeste 0 -- -- 77
2020-08-09 03:00:00 19.7 23 Norte 44 Noroeste 0 -- -- 74
2020-08-09 02:00:00 -- -- -- -- -- -- -- -- --
2020-08-09 01:00:00 19.8 28 Norte 46 Norte 0 -- -- 74
2020-08-09 00:00:00 21.5 27 Norte 36 Norte 0 -- -- 61
2020-08-08 23:00:00 22.5 17 Noroeste 41 Noroeste 0 -- -- 48
2020-08-08 22:00:00 20.2 29 Noroeste 49 Noroeste 0 -- -- 73
2020-08-08 21:00:00 20.8 22 Norte 41 Norte 0 -- -- 73
2020-08-08 20:00:00 22.5 28 Norte 43 Noroeste 0 -- -- 67
2020-08-08 19:00:00 23.9 28 Norte 42 Norte 0 -- -- 63
2020-08-08 18:00:00 25.6 22 Norte 40 Norte 0 -- -- 57
2020-08-08 17:00:00 25 22 Norte 43 Norte 0 -- -- 60
2020-08-08 16:00:00 25.8 26 Norte 42 Noroeste 0 -- -- 56
2020-08-08 15:00:00 26 23 Norte 38 Norte 0 -- -- 57
2020-08-08 14:00:00 24.8 24 Norte 38 Noroeste 0 -- -- 60
2020-08-08 13:00:00 23.8 25 Norte 46 Norte 0 -- -- 65
2020-08-08 12:00:00 23.3 26 Norte 45 Norte 0 -- -- 66
2020-08-08 11:00:00 22.8 27 Norte 43 Norte 0 -- -- 68
2020-08-08 10:00:00 21.4 26 Noroeste 50 Noroeste 0 -- -- 70
2020-08-08 09:00:00 20.6 17 Noroeste 37 Noroeste 0 -- -- 75
2020-08-08 08:00:00 19.4 18 Noroeste 40 Noroeste 0 -- -- 76
2020-08-08 07:00:00 19.4 22 Noroeste 47 Noroeste 0 -- -- 76
2020-08-08 06:00:00 19.6 22 Noroeste 38 Norte 0 -- -- 76
2020-08-08 05:00:00 19.7 16 Noroeste 40 Noroeste 0 -- -- 80
2020-08-08 04:00:00 19.9 16 Noroeste 34 Noroeste 0 -- -- 79
2020-08-08 03:00:00 19.7 16 Noroeste 33 Oeste 0 -- -- 78
2020-08-08 02:00:00 19.6 17 Noroeste 39 Noroeste 0 -- -- 78
2020-08-08 01:00:00 19.6 21 Noroeste 39 Noroeste 0 -- -- 79
2020-08-08 00:00:00 19.8 20 Norte 33 Norte 0 -- -- 77
2020-08-07 23:00:00 20.2 -- -- -- -- 0 -- -- 76
2020-08-07 22:00:00 20.1 23 Noroeste 41 Noroeste 0 -- -- 75
2020-08-07 21:00:00 20.5 27 Norte 44 Noroeste 0 -- -- 73
2020-08-07 20:00:00 21.8 24 Noroeste 47 Oeste 0 -- -- 68
2020-08-07 19:00:00 23 25 Norte 41 Norte 0 -- -- 66
2020-08-07 18:00:00 24.1 24 Norte 38 Norte 0 -- -- 62
2020-08-07 17:00:00 25.1 19 Norte 39 Norte 0 -- -- 58
2020-08-07 16:00:00 25.6 22 Norte 33 Norte 0 -- -- 57
2020-08-07 15:00:00 25.5 21 Norte 35 Norte 0 -- -- 58
2020-08-07 14:00:00 25.3 20 Norte 38 Norte 0 -- -- 57
2020-08-07 13:00:00 24.7 23 Norte 35 Norte 0 -- -- 59
2020-08-07 12:00:00 23.7 19 Norte 35 Noroeste 0 -- -- 63
2020-08-07 11:00:00 22.5 17 Norte 32 Noroeste 0 -- -- 67
2020-08-07 10:00:00 20.4 17 Norte 32 Noroeste 0 -- -- 76
2020-08-07 09:00:00 19.7 10 Noroeste 36 Noroeste 0 -- -- 78
2020-08-07 08:00:00 19.3 16 Noroeste 34 Noroeste 0 -- -- 78
2020-08-07 07:00:00 19.3 12 Noroeste 34 Noroeste 0 -- -- 78
2020-08-07 06:00:00 19.6 16 Noroeste 33 Noroeste 0 -- -- 79
2020-08-07 05:00:00 19.6 22 Noroeste 43 Noroeste 0 -- -- 78
2020-08-07 04:00:00 19.8 15 Noroeste 29 Noroeste 0 -- -- 79
2020-08-07 03:00:00 19.8 16 Noroeste 38 Noroeste 0 -- -- 79
2020-08-07 02:00:00 19.8 14 Noroeste 36 Norte 0 -- -- 79
2020-08-07 01:00:00 19.8 18 Noroeste 37 Noroeste 0 -- -- 79
2020-08-07 00:00:00 20 20 Noroeste 38 Noroeste 0 -- -- 76
2020-08-06 23:00:00 20.1 15 Noroeste 35 Noroeste 0 -- -- 77
2020-08-06 22:00:00 20.1 14 Noroeste 36 Norte 0 -- -- 75
2020-08-06 21:00:00 20.9 17 Noroeste 36 Noroeste 0 -- -- 75
2020-08-06 20:00:00 22.5 21 Noroeste 34 Norte 0 -- -- 70
2020-08-06 19:00:00 24.2 23 Norte 35 Noroeste 0 -- -- 63
2020-08-06 18:00:00 25 22 Norte 37 Noroeste 0 -- -- 59
2020-08-06 17:00:00 25.8 21 Norte 37 Noroeste 0 -- -- 56
2020-08-06 16:00:00 25.8 16 Norte 35 Norte 0 -- -- 57
2020-08-06 15:00:00 26.4 15 Norte 31 Norte 0 -- -- 57
2020-08-06 14:00:00 26.2 21 Norte 28 Norte 0 -- -- 56
2020-08-06 13:00:00 25.7 19 Norte 37 Norte 0 -- -- 59
2020-08-06 12:00:00 24.9 20 Norte 37 Norte 0 -- -- 60
2020-08-06 11:00:00 22.8 20 Norte 38 Norte 0 -- -- 67
2020-08-06 10:00:00 21.9 19 Norte 38 Norte 0 -- -- 70
2020-08-06 09:00:00 20.1 18 Noroeste 37 Noroeste 0 -- -- 76
2020-08-06 08:00:00 19.1 17 Noroeste 36 Noroeste 0 -- -- 79
2020-08-06 07:00:00 19.1 14 Noroeste 26 Noroeste 0 -- -- 77
2020-08-06 06:00:00 19.2 13 Noroeste 34 Norte 0 -- -- 74
2020-08-06 05:00:00 19.7 19 Noroeste 38 Noroeste 0 -- -- 72
2020-08-06 04:00:00 19.8 23 Norte 36 Norte 0 -- -- 70
2020-08-06 03:00:00 20.1 17 Norte 29 Norte 0 -- -- 68
2020-08-06 02:00:00 20.3 21 Norte 34 Norte 0 -- -- 65
2020-08-06 01:00:00 20.5 19 Norte 30 Noroeste 0 -- -- 66
2020-08-06 00:00:00 21.1 17 Norte 27 Noroeste 0 -- -- 61
2020-08-05 23:00:00 21 21 Norte 34 Norte 0 -- -- 62
2020-08-05 22:00:00 21.2 17 Noroeste 32 Norte 0 -- -- 64
2020-08-05 21:00:00 21.7 22 Norte 31 Norte 0 -- -- 68
2020-08-05 20:00:00 23.8 17 Norte 32 Norte 0 -- -- 62
2020-08-05 19:00:00 25.3 19 Norte 32 Norte 0 -- -- 58
2020-08-05 18:00:00 26.5 21 Norte 32 Norte 0 -- -- 55
2020-08-05 17:00:00 27.8 20 Norte 32 Norte 0 -- -- 50
2020-08-05 16:00:00 29.1 18 Norte 28 Norte 0 -- -- 45
2020-08-05 15:00:00 28.9 15 Norte 30 Norte 0 -- -- 44
2020-08-05 14:00:00 28.1 21 Norte 33 Norte 0 -- -- 46
2020-08-05 13:00:00 27.7 19 Norte 30 Norte 0 -- -- 47
2020-08-05 12:00:00 27.2 17 Norte 27 Norte 0 -- -- 49
2020-08-05 11:00:00 26.4 15 Norte 27 Norte 0 -- -- 51
2020-08-05 10:00:00 23.7 19 Norte 40 Norte 0 -- -- 60
2020-08-05 09:00:00 21.5 27 Norte 41 Norte 0 -- -- 67
2020-08-05 08:00:00 19.9 29 Norte 40 Noroeste 0 -- -- 75
2020-08-05 07:00:00 20.2 25 Norte 35 Norte 0 -- -- 71
2020-08-05 06:00:00 19.8 24 Norte 37 Noroeste 0 -- -- 74
2020-08-05 05:00:00 20 20 Noroeste 45 Noroeste 0 -- -- 76
2020-08-05 04:00:00 20.1 21 Noroeste 44 Noroeste 0 -- -- 78
2020-08-05 03:00:00 20.3 27 Noroeste 49 Noroeste 0 -- -- 78
2020-08-05 02:00:00 20.6 27 Norte 45 Norte 0 -- -- 75
2020-08-05 01:00:00 20.6 29 Norte 54 Noroeste 0 -- -- 74
2020-08-05 00:00:00 20.6 29 Norte 45 Noroeste 0 -- -- 74
2020-08-04 23:00:00 20.6 27 Norte 40 Norte 0 -- -- 72
2020-08-04 22:00:00 20.6 21 Norte 37 Noroeste 0 -- -- 73
2020-08-04 21:00:00 21.1 19 Noroeste 38 Noroeste 0 -- -- 71
2020-08-04 20:00:00 23.2 20 Noroeste 36 Norte 0 -- -- 65
2020-08-04 19:00:00 25 19 Norte 35 Noroeste 0 -- -- 58
2020-08-04 18:00:00 25.7 23 Norte 35 Noroeste 0 -- -- 58
2020-08-04 17:00:00 27 22 Norte 37 Norte 0 -- -- 54
2020-08-04 16:00:00 28.3 19 Norte 34 Norte 0 -- -- 51
2020-08-04 15:00:00 28.2 21 Norte 34 Norte 0 -- -- 50
2020-08-04 14:00:00 26.7 19 Noroeste 37 Noroeste 0 -- -- 55
2020-08-04 13:00:00 25.9 21 Norte 44 Norte 0 -- -- 60
2020-08-04 12:00:00 23.6 28 Norte 47 Norte 0 -- -- 67
2020-08-04 11:00:00 22.3 23 Norte 42 Noroeste 0 -- -- 74
2020-08-04 10:00:00 21 26 Noroeste 48 Noroeste 0 -- -- 78
2020-08-04 09:00:00 20.4 24 Noroeste 41 Noroeste 0 -- -- 79
2020-08-04 08:00:00 20.1 24 Noroeste 48 Noroeste 0 -- -- 80
2020-08-04 07:00:00 20 27 Noroeste 44 Noroeste 0 -- -- 76
2020-08-04 06:00:00 21.5 15 Noroeste 36 Noroeste 0 -- -- 53
2020-08-04 05:00:00 21.5 22 Noroeste 37 Norte 0 -- -- 50
2020-08-04 04:00:00 21.9 20 Noroeste 36 Noroeste 0 -- -- 42
2020-08-04 03:00:00 24 22 Norte 32 Noroeste 0 -- -- 30
2020-08-04 02:00:00 26.3 12 Noroeste 32 Noroeste 0 -- -- 14
2020-08-04 01:00:00 26.7 15 Noroeste 37 Noroeste 0 -- -- 14
2020-08-04 00:00:00 25.9 14 Noroeste 30 Noroeste 0 -- -- 18
2020-08-03 23:00:00 26.3 18 Noroeste 27 Noroeste 0 -- -- 17
2020-08-03 22:00:00 25.3 16 Noroeste 31 Noroeste 0 -- -- 26
2020-08-03 21:00:00 26.4 17 Noroeste 37 Noroeste 0 -- -- 17
2020-08-03 20:00:00 27.9 19 Noroeste 39 Noroeste 0 -- -- 20
2020-08-03 19:00:00 29.4 20 Noroeste 40 Noroeste 0 -- -- 15
2020-08-03 18:00:00 28.9 21 Noroeste 53 Noroeste 0 -- -- 21
2020-08-03 17:00:00 29.6 26 Norte 44 Noroeste 0 -- -- 25
2020-08-03 16:00:00 30.3 21 Norte 37 Noroeste 0 -- -- 29
2020-08-03 15:00:00 30.6 20 Norte 40 Noroeste 0 -- -- 34
2020-08-03 14:00:00 31.6 21 Norte 38 Norte 0 -- -- 33
2020-08-03 13:00:00 30.9 19 Norte 36 Norte 0 -- -- 27
2020-08-03 12:00:00 28.3 23 Norte 36 Norte 0 -- -- 46
2020-08-03 11:00:00 28.6 22 Norte 34 Norte 0 -- -- 44
2020-08-03 10:00:00 29.4 18 Norte 36 Noroeste 0 -- -- 34
2020-08-03 09:00:00 28.1 18 Noroeste 33 Noroeste 0 -- -- 33
2020-08-03 08:00:00 26.9 18 Noroeste 35 Noroeste 0 -- -- 34
2020-08-03 07:00:00 26.8 17 Norte 35 Noroeste 0 -- -- 32
2020-08-03 06:00:00 27.4 17 Norte 34 Norte 0 -- -- 32
2020-08-03 05:00:00 27.9 13 Noroeste 29 Noroeste 0 -- -- 26
2020-08-03 04:00:00 26.3 16 Noroeste 33 Oeste 0 -- -- 38
2020-08-03 03:00:00 26.2 21 Noroeste 33 Noroeste 0 -- -- 37
2020-08-03 02:00:00 25.5 17 Noroeste 37 Noroeste 0 -- -- 38
2020-08-03 01:00:00 24.6 22 Norte 38 Norte 0 -- -- 42
2020-08-03 00:00:00 24.6 26 Norte 41 Norte 0 -- -- 46
2020-08-02 23:00:00 28.4 13 Noroeste 26 Oeste 0 -- -- 21
2020-08-02 22:00:00 30.7 18 Oeste 42 Oeste 0 -- -- 11
2020-08-02 21:00:00 30.4 12 Noroeste 30 Oeste 0 -- -- 11
2020-08-02 20:00:00 30.7 17 Noroeste 31 Noroeste 0 -- -- 14
2020-08-02 19:00:00 31.7 14 Noroeste 31 Noroeste 0 -- -- 15
2020-08-02 18:00:00 32 16 Noroeste 32 Norte 0 -- -- 23
2020-08-02 17:00:00 31.2 19 Norte 33 Norte 0 -- -- 30
2020-08-02 16:00:00 31 15 Norte 35 Norte 0 -- -- 37
2020-08-02 15:00:00 31.3 15 Norte 32 Norte 0 -- -- 30
2020-08-02 14:00:00 31.8 14 Noroeste 35 Noroeste 0 -- -- 24
2020-08-02 13:00:00 29.4 15 Norte 31 Norte 0 -- -- 44
2020-08-02 12:00:00 29.4 17 Norte 26 Norte 0 -- -- 48
2020-08-02 11:00:00 31 12 Norte 25 Noroeste 0 -- -- 21
2020-08-02 10:00:00 28.7 12 Noroeste 27 Noroeste 0 -- -- 22
2020-08-02 09:00:00 27.4 16 Norte 25 Norte 0 -- -- 21
2020-08-02 08:00:00 24.5 4 Oeste 27 Norte 0 -- -- 31
2020-08-02 07:00:00 24.5 9 Norte 24 Noroeste 0 -- -- 33
2020-08-02 06:00:00 24.9 7 Noroeste 19 Norte 0 -- -- 33
2020-08-02 05:00:00 21.5 5 Sudeste 10 Este 0 -- -- 71
2020-08-02 04:00:00 21.8 3 Sudoeste 12 Oeste 0 -- -- 67
2020-08-02 03:00:00 22.3 6 Oeste 21 Noroeste 0 -- -- 68
2020-08-02 02:00:00 21.9 7 Sur 19 Norte 0 -- -- 71
2020-08-02 01:00:00 22.7 6 Noroeste 21 Norte 0 -- -- 65
2020-08-02 00:00:00 25 14 Norte 25 Noroeste 0 -- -- 50
2020-08-01 23:00:00 26.8 14 Norte 25 Norte 0 -- -- 35
2020-08-01 22:00:00 27.7 10 Noroeste 22 Oeste 0 -- -- 27
2020-08-01 21:00:00 26.5 13 Noroeste 28 Oeste 0 -- -- 29
2020-08-01 20:00:00 25.9 14 Norte 28 Norte 0 -- -- 40
2020-08-01 19:00:00 25.9 15 Norte 36 Norte 0 -- -- 50
2020-08-01 18:00:00 25.3 28 Norte 41 Norte 0 -- -- 65
2020-08-01 17:00:00 26.4 24 Norte 37 Norte 0 -- -- 62
2020-08-01 16:00:00 27.2 17 Norte 29 Norte 0 -- -- 59
2020-08-01 15:00:00 27.9 12 Norte 25 Norte 0 -- -- 56
2020-08-01 14:00:00 27.1 12 Norte 23 Norte 0 -- -- 59
2020-08-01 13:00:00 25.5 9 Nordeste 27 Nordeste 0 -- -- 65
2020-08-01 12:00:00 24.6 8 Norte 19 Nordeste 0 -- -- 68
2020-08-01 11:00:00 23.6 8 Norte 19 Nordeste 0 -- -- 71
2020-08-01 10:00:00 21.8 7 Nordeste 20 Norte 0 -- -- 79
2020-08-01 09:00:00 20.7 8 Noroeste 16 Norte 0 -- -- 82
2020-08-01 08:00:00 19.6 7 Noroeste 14 Noroeste 0 -- -- 86
2020-08-01 07:00:00 19.7 4 Sudeste 14 Oeste 0 -- -- 84
2020-08-01 06:00:00 19.6 7 Oeste 12 Oeste 0 -- -- 83
2020-08-01 05:00:00 19.7 3 Sudeste 13 Oeste 0 -- -- 83
2020-08-01 04:00:00 19.4 6 Noroeste 15 Norte 0 -- -- 86
2020-08-01 03:00:00 19.6 3 Noroeste 9 Noroeste 0 -- -- 83
2020-08-01 02:00:00 19.7 4 Noroeste 26 Norte 0 -- -- 83
2020-08-01 01:00:00 19.6 9 Noroeste 27 Norte 0 -- -- 84
2020-08-01 00:00:00 19.8 11 Norte 27 Noroeste 0 -- -- 83
2020-07-31 23:00:00 20 13 Norte 27 Noroeste 0 -- -- 84
2020-07-31 22:00:00 20.1 17 Noroeste 28 Norte 0 -- -- 83
2020-07-31 21:00:00 20.5 16 Norte 30 Norte 0 -- -- 80
2020-07-31 20:00:00 21.3 19 Norte 32 Norte 0 -- -- 78
2020-07-31 19:00:00 22.8 19 Norte 37 Noroeste 0 -- -- 71
2020-07-31 18:00:00 24.1 15 Norte 30 Norte 0 -- -- 66
2020-07-31 17:00:00 25.6 15 Norte 28 Norte 0 -- -- 61
2020-07-31 16:00:00 24.7 12 Norte 29 Este 0 -- -- 64
2020-07-31 15:00:00 24 14 Este 28 Nordeste 0 -- -- 67
2020-07-31 14:00:00 23.5 14 Nordeste 30 Este 0 -- -- 68
2020-07-31 13:00:00 23.2 14 Este 27 Este 0 -- -- 67
2020-07-31 12:00:00 22.9 11 Nordeste 26 Este 0 -- -- 69
2020-07-31 11:00:00 22.6 13 Norte 21 Norte 0 -- -- 69
2020-07-31 10:00:00 20.9 13 Norte 21 Norte 0 -- -- 75
2020-07-31 09:00:00 19.6 7 Norte 16 Noroeste 0 -- -- 80
2020-07-31 08:00:00 18.9 6 Noroeste 17 Noroeste 0 -- -- 83
2020-07-31 07:00:00 18.8 6 Noroeste 17 Noroeste 0 -- -- 81
2020-07-31 06:00:00 19.1 16 Oeste 25 Oeste 0 -- -- 80
2020-07-31 05:00:00 19 9 Noroeste 27 Noroeste 0 -- -- 82
2020-07-31 04:00:00 19.1 12 Noroeste 28 Noroeste 0 -- -- 81
2020-07-31 03:00:00 19.3 10 Noroeste 29 Noroeste 0 -- -- 80
2020-07-31 02:00:00 19.5 11 Noroeste 23 Noroeste 0 -- -- 80
2020-07-31 01:00:00 19.4 12 Noroeste 28 Noroeste 0 -- -- 80
2020-07-31 00:00:00 19.3 17 Norte 29 Noroeste 0 -- -- 81
2020-07-30 23:00:00 19.4 15 Norte 30 Norte 0 -- -- 80
2020-07-30 22:00:00 19.6 14 Noroeste 28 Noroeste 0 -- -- 79
2020-07-30 21:00:00 20 17 Noroeste 33 Norte 0 -- -- 76
2020-07-30 20:00:00 21.2 16 Norte 34 Noroeste 0 -- -- 71
2020-07-30 19:00:00 22.2 19 Noroeste 36 Noroeste 0 -- -- 69
2020-07-30 18:00:00 23.4 21 Norte 39 Norte 0 -- -- 64
2020-07-30 17:00:00 23.8 25 Norte 40 Norte 0 -- -- 63
2020-07-30 16:00:00 24.4 21 Noroeste 39 Norte 0 -- -- 60
2020-07-30 15:00:00 24.3 20 Norte 41 Norte 0 -- -- 59
2020-07-30 14:00:00 24.3 22 Norte 42 Norte 0 -- -- 60
2020-07-30 13:00:00 24.1 23 Norte 39 Norte 0 -- -- 60
2020-07-30 12:00:00 23.7 19 Norte 29 Norte 0 -- -- 61
2020-07-30 11:00:00 22.7 16 Norte 30 Norte 0 -- -- 64
2020-07-30 10:00:00 21.2 16 Norte 28 Norte 0 -- -- 69
2020-07-30 09:00:00 19.1 15 Norte 28 Noroeste 0 -- -- 76
2020-07-30 08:00:00 18.7 15 Norte 30 Oeste 0 -- -- 79
2020-07-30 07:00:00 18.5 18 Noroeste 38 Noroeste 0 -- -- 79
2020-07-30 06:00:00 18.3 17 Noroeste 38 Noroeste 0 -- -- 79
2020-07-30 05:00:00 18.5 20 Noroeste 43 Noroeste 0 -- -- 79
2020-07-30 04:00:00 18.7 24 Noroeste 46 Noroeste 0 -- -- 77
2020-07-30 03:00:00 19.1 28 Noroeste 41 Noroeste 0 -- -- 77
2020-07-30 02:00:00 19.4 19 Noroeste 40 Noroeste 0 -- -- 76
2020-07-30 01:00:00 19.6 19 Noroeste 41 Noroeste 0 -- -- 77
2020-07-30 00:00:00 19.5 18 Noroeste 44 Noroeste 0 -- -- 77
2020-07-29 23:00:00 19.4 25 Noroeste 47 Noroeste 0 -- -- 77
2020-07-29 22:00:00 19.7 22 Noroeste 48 Noroeste 0 -- -- 76
2020-07-29 21:00:00 20 28 Noroeste 47 Noroeste 0 -- -- 74
2020-07-29 20:00:00 21.1 27 Noroeste 51 Noroeste 0 -- -- 71
2020-07-29 19:00:00 22.8 24 Norte 44 Noroeste 0 -- -- 68
2020-07-29 18:00:00 23.4 24 Noroeste 44 Norte 0 -- -- 63
2020-07-29 17:00:00 23.8 30 Norte 46 Norte 0 -- -- 63
2020-07-29 16:00:00 24.6 28 Norte 46 Noroeste 0 -- -- 60
2020-07-29 15:00:00 24.3 28 Norte 49 Noroeste 0 -- -- 62
2020-07-29 14:00:00 25.2 24 Norte 42 Norte 0 -- -- 56
2020-07-29 13:00:00 23.1 24 Norte 45 Norte 0 -- -- 65
2020-07-29 12:00:00 21.5 21 Noroeste 41 Oeste 0 -- -- 71
2020-07-29 11:00:00 21.1 22 Noroeste 49 Noroeste 0 -- -- 72
2020-07-29 10:00:00 20.3 21 Noroeste 40 Noroeste 0 -- -- 75
2020-07-29 09:00:00 19.7 26 Noroeste 42 Noroeste 0 -- -- 77
2020-07-29 08:00:00 19.4 19 Noroeste 41 Noroeste 0 -- -- 78
2020-07-29 07:00:00 19.2 20 Noroeste 45 Noroeste 0 -- -- 79
2020-07-29 06:00:00 19.3 24 Noroeste 46 Noroeste 0 -- -- 78
2020-07-29 05:00:00 19.4 19 Noroeste 43 Noroeste 0 -- -- 78
2020-07-29 04:00:00 19.5 21 Noroeste 43 Noroeste 0 -- -- 78
2020-07-29 03:00:00 19.4 21 Noroeste 41 Noroeste 0 -- -- 79
2020-07-29 02:00:00 19.5 22 Noroeste 44 Noroeste 0 -- -- 79
2020-07-29 01:00:00 19.9 25 Noroeste 51 Noroeste 0 -- -- 78
2020-07-29 00:00:00 19.6 27 Noroeste 52 Noroeste 0 -- -- 80
2020-07-28 23:00:00 19.7 31 Noroeste 55 Noroeste 0 -- -- 81
2020-07-28 22:00:00 19.9 29 Noroeste 45 Noroeste 0 -- -- 79
2020-07-28 21:00:00 19.9 30 Norte 47 Noroeste 0 -- -- 81
2020-07-28 20:00:00 21.2 30 Norte 45 Noroeste 0 -- -- 76
2020-07-28 19:00:00 22.7 23 Norte 47 Norte 0 -- -- 71
2020-07-28 18:00:00 23.5 28 Norte 45 Norte 0 -- -- 67
2020-07-28 17:00:00 24.4 26 Norte 42 Norte 0 -- -- 64
2020-07-28 16:00:00 24.7 30 Norte 49 Norte 0 -- -- 63
2020-07-28 15:00:00 24.9 26 Norte 46 Norte 0 -- -- 63
2020-07-28 14:00:00 25.1 24 Norte 45 Norte 0 -- -- 62
2020-07-28 13:00:00 24.3 23 Norte 44 Noroeste 0 -- -- 65
2020-07-28 12:00:00 24.2 24 Norte 40 Norte 0 -- -- 66
2020-07-28 11:00:00 24.2 22 Norte 37 Norte 0 -- -- 65
2020-07-28 10:00:00 23.1 22 Norte 32 Norte 0 -- -- 67
2020-07-28 09:00:00 21.8 5 Sudeste 31 Norte 0 -- -- 68
2020-07-28 08:00:00 20.2 17 Norte 36 Noroeste 0 -- -- 74
2020-07-28 07:00:00 20.1 26 Norte 36 Norte 0 -- -- 75
2020-07-28 06:00:00 20.9 24 Norte 32 Norte 0 -- -- 68
2020-07-28 05:00:00 20.5 24 Norte 38 Noroeste 0 -- -- 69
2020-07-28 04:00:00 21.3 22 Norte 32 Norte 0 -- -- 65
2020-07-28 03:00:00 22 15 Noroeste 32 Noroeste 0 -- -- 58
2020-07-28 02:00:00 20.7 22 Norte 36 Norte 0 -- -- 73
2020-07-28 01:00:00 20.5 26 Norte 46 Noroeste 0 -- -- 77
2020-07-28 00:00:00 20.5 27 Norte 41 Norte 0 -- -- 77
2020-07-27 23:00:00 20.7 26 Norte 37 Norte 0 -- -- 77
2020-07-27 22:00:00 21.1 19 Norte 41 Norte 0 -- -- 72
2020-07-27 21:00:00 20.8 27 Norte 45 Noroeste 0 -- -- 77
2020-07-27 20:00:00 22.1 30 Norte 43 Noroeste 0 -- -- 73
2020-07-27 19:00:00 24.9 28 Norte 43 Norte 0 -- -- 62
2020-07-27 18:00:00 25.7 19 Norte 37 Norte 0 -- -- 60
2020-07-27 17:00:00 25.8 18 Norte 37 Noroeste 0 -- -- 59
2020-07-27 16:00:00 26.5 16 Noroeste 33 Norte 0 -- -- 57
2020-07-27 15:00:00 26.7 21 Norte 38 Noroeste 0 -- -- 55
2020-07-27 14:00:00 27.7 16 Norte 27 Noroeste 0 -- -- 49
2020-07-27 13:00:00 26.7 18 Norte 31 Norte 0 -- -- 52
2020-07-27 12:00:00 24.7 21 Norte 34 Norte 0 -- -- 60
2020-07-27 11:00:00 22.2 20 Norte 39 Norte 0 -- -- 67
2020-07-27 08:00:00 -- -- -- -- -- -- -- -- --
2020-07-27 07:00:00 -- -- -- -- -- -- -- -- --
2020-07-27 06:00:00 -- -- -- -- -- -- -- -- --
2020-07-27 05:00:00 19.1 22 Norte 48 Noroeste 0 -- -- 80
2020-07-27 04:00:00 19.5 21 Noroeste 41 Noroeste 0 -- -- 79
2020-07-27 03:00:00 19.4 20 Noroeste 38 Noroeste 0 -- -- 80
2020-07-27 02:00:00 19.4 22 Noroeste 44 Noroeste 0 -- -- 80
2020-07-27 01:00:00 19.5 29 Norte 50 Norte 0 -- -- 79
2020-07-27 00:00:00 19.4 23 Noroeste 42 Noroeste 0 -- -- 79
2020-07-26 23:00:00 19.6 22 Noroeste 49 Noroeste 0 -- -- 78
2020-07-26 22:00:00 19.8 27 Noroeste 49 Noroeste 0 -- -- 77
2020-07-26 21:00:00 20.2 26 Noroeste 47 Noroeste 0 -- -- 75
2020-07-26 20:00:00 22.2 28 Norte 41 Norte 0 -- -- 66
2020-07-26 19:00:00 23.3 23 Norte 42 Norte 0 -- -- 63
2020-07-26 18:00:00 24.3 22 Norte 42 Noroeste 0 -- -- 63
2020-07-26 17:00:00 24.7 20 Norte 41 Norte 0 -- -- 62
2020-07-26 16:00:00 25.2 27 Norte 39 Noroeste 0 -- -- 60
2020-07-26 15:00:00 24.9 28 Norte 44 Norte 0 -- -- 59
2020-07-26 14:00:00 25.5 23 Norte 45 Norte 0 -- -- 56
2020-07-26 13:00:00 24.7 25 Norte 44 Norte 0 -- -- 60
2020-07-26 12:00:00 24.5 23 Norte 43 Noroeste 0 -- -- 60
2020-07-26 11:00:00 23.2 26 Norte 48 Norte 0 -- -- 64
2020-07-26 10:00:00 21.6 23 Noroeste 46 Noroeste 0 -- -- 71
2020-07-26 09:00:00 20.7 20 Noroeste 42 Noroeste 0 -- -- 73
2020-07-26 08:00:00 19.9 21 Noroeste 42 Noroeste 0 -- -- 75
2020-07-26 07:00:00 19.9 24 Noroeste 45 Norte 0 -- -- 74
2020-07-26 06:00:00 20.1 24 Noroeste 42 Noroeste 0 -- -- 71
2020-07-26 05:00:00 20.3 21 Noroeste 41 Norte 0 -- -- 69
2020-07-26 04:00:00 20.1 25 Norte 40 Norte 0 -- -- 73
2020-07-26 03:00:00 20 25 Noroeste 40 Norte 0 -- -- 74
2020-07-26 02:00:00 20.1 27 Norte 43 Norte 0 -- -- 71
2020-07-26 01:00:00 20.1 29 Noroeste 43 Norte 0 -- -- 73
2020-07-26 00:00:00 20.2 26 Norte 41 Noroeste 0 -- -- 72
2020-07-25 23:00:00 20.3 27 Noroeste 41 Noroeste 0 -- -- 70
2020-07-25 22:00:00 20.6 27 Norte 40 Norte 0 -- -- 68
2020-07-25 21:00:00 22.3 23 Norte 33 Norte 0 -- -- 58
2020-07-25 20:00:00 26.7 19 Noroeste 32 Norte 0 -- -- 43
2020-07-25 19:00:00 29.5 16 Noroeste 32 Norte 0 -- -- 24
2020-07-25 18:00:00 29.8 21 Noroeste 40 Noroeste 0 -- -- 24
2020-07-25 17:00:00 29.6 22 Norte 36 Norte 0 -- -- 30
2020-07-25 16:00:00 29.1 20 Norte 35 Oeste 0 -- -- 37
2020-07-25 15:00:00 29.2 21 Norte 34 Norte 0 -- -- 41
2020-07-25 14:00:00 29.4 21 Norte 33 Norte 0 -- -- 31
2020-07-25 13:00:00 28.5 18 Noroeste 35 Noroeste 0 -- -- 38
2020-07-25 12:00:00 28.6 19 Norte 37 Noroeste 0 -- -- 33
2020-07-25 11:00:00 26.8 21 Norte 36 Norte 0 -- -- 43
2020-07-25 10:00:00 25.5 17 Noroeste 29 Oeste 0 -- -- 42
2020-07-25 09:00:00 25.2 12 Norte 27 Norte 0 -- -- 42
2020-07-25 08:00:00 22.5 15 Noroeste 28 Norte 0 -- -- 44
2020-07-25 07:00:00 20.7 18 Norte 30 Noroeste 0 -- -- 51
2020-07-25 06:00:00 20.7 21 Norte 35 Norte 0 -- -- 57
2020-07-25 05:00:00 20.4 19 Norte 36 Norte 0 -- -- 61
2020-07-25 04:00:00 20.5 26 Norte 36 Norte 0 -- -- 66
2020-07-25 03:00:00 20.8 22 Norte 34 Norte 0 -- -- 62
2020-07-25 02:00:00 22.5 18 Norte 26 Norte 0 -- -- 52
2020-07-25 01:00:00 22.3 12 Norte 23 Norte 0 -- -- 54
2020-07-25 00:00:00 21.4 5 Oeste 29 Norte 0 -- -- 65
2020-07-24 23:00:00 21.9 17 Norte 26 Norte 0 -- -- 66
2020-07-24 22:00:00 22.1 16 Norte 28 Norte 0 -- -- 66
2020-07-24 21:00:00 22.1 22 Norte 31 Norte 0 -- -- 69
2020-07-24 20:00:00 24.3 24 Norte 35 Norte 0 -- -- 62
2020-07-24 19:00:00 25.5 21 Norte 33 Norte 0 -- -- 59
2020-07-24 18:00:00 27 21 Norte 31 Noroeste 0 -- -- 56
2020-07-24 17:00:00 28 21 Norte 33 Norte 0 -- -- 52
2020-07-24 16:00:00 28.1 18 Norte 35 Norte 0 -- -- 51
2020-07-24 15:00:00 28.1 23 Norte 35 Norte 0 -- -- 51
2020-07-24 14:00:00 27.2 24 Norte 35 Norte 0 -- -- 53
2020-07-24 13:00:00 27.3 19 Norte 35 Norte 0 -- -- 53
2020-07-24 12:00:00 24.9 28 Norte 40 Norte 0 -- -- 59
2020-07-24 11:00:00 23.6 30 Norte 43 Norte 0 -- -- 63
2020-07-24 10:00:00 22.8 28 Norte 40 Norte 0 -- -- 63
2020-07-24 09:00:00 21.5 25 Norte 41 Norte 0 -- -- 64
2020-07-24 08:00:00 20.5 26 Norte 40 Norte 0 -- -- 63
2020-07-24 07:00:00 19.9 30 Norte 42 Norte 0 -- -- 66
2020-07-24 06:00:00 20 31 Norte 44 Norte 0 -- -- 66
2020-07-24 05:00:00 21.3 19 Norte 36 Norte 0 -- -- 55
2020-07-24 04:00:00 20.9 26 Norte 35 Norte 0 -- -- 63
2020-07-24 03:00:00 22 19 Norte 32 Norte 0 -- -- 54
2020-07-24 02:00:00 23.5 15 Norte 23 Noroeste 0 -- -- 43
2020-07-24 01:00:00 24.9 15 Norte 24 Norte 0 -- -- 37
2020-07-24 00:00:00 24.9 13 Norte 23 Norte 0 -- -- 35
2020-07-23 23:00:00 23.8 17 Norte 25 Norte 0 -- -- 47
2020-07-23 22:00:00 24.2 14 Norte 28 Norte 0 -- -- 42
2020-07-23 21:00:00 26.3 13 Norte 24 Noroeste 0 -- -- 42
2020-07-23 20:00:00 29 14 Noroeste 25 Nordeste 0 -- -- 30
2020-07-23 19:00:00 28.8 15 Norte 33 Norte 0 -- -- 42
2020-07-23 18:00:00 28 19 Norte 31 Norte 0 -- -- 50
2020-07-23 17:00:00 29 19 Norte 36 Norte 0 -- -- 47
2020-07-23 16:00:00 28.1 26 Norte 37 Norte 0 -- -- 51
2020-07-23 15:00:00 29.1 22 Norte 32 Norte 0 -- -- 47
2020-07-23 14:00:00 28.6 21 Norte 34 Norte 0 -- -- 48
2020-07-23 13:00:00 28.9 19 Norte 31 Norte 0 -- -- 46
2020-07-23 12:00:00 26.9 22 Norte 35 Norte 0 -- -- 53
2020-07-23 11:00:00 25.5 22 Norte 31 Norte 0 -- -- 57
2020-07-23 10:00:00 25.2 18 Norte 33 Norte 0 -- -- 52
2020-07-23 09:00:00 25.3 17 Norte 26 Norte 0 -- -- 45
2020-07-23 08:00:00 23 14 Norte 31 Norte 0 -- -- 46
2020-07-23 07:00:00 24.8 14 Norte 26 Noroeste 0 -- -- 36
2020-07-23 06:00:00 25.5 12 Noroeste 23 Oeste 0 -- -- 32
2020-07-23 05:00:00 25 9 Noroeste 21 Oeste 0 -- -- 36
2020-07-23 04:00:00 24.8 10 Oeste 25 Noroeste 0 -- -- 36
2020-07-23 03:00:00 24.3 10 Noroeste 27 Noroeste 0 -- -- 40
2020-07-23 02:00:00 22.4 13 Noroeste 24 Norte 0 -- -- 46
2020-07-23 01:00:00 21.1 10 Noroeste 20 Oeste 0 -- -- 52
2020-07-23 00:00:00 20.5 8 Oeste 26 Norte 0 -- -- 66
2020-07-22 23:00:00 20.2 21 Norte 41 Noroeste 0 -- -- 73
2020-07-22 22:00:00 19.9 18 Noroeste 37 Noroeste 0 -- -- 78
2020-07-22 21:00:00 20.4 20 Noroeste 37 Norte 0 -- -- 77
2020-07-22 20:00:00 21.5 21 Norte 42 Noroeste 0 -- -- 73
2020-07-22 19:00:00 22.8 25 Norte 42 Norte 0 -- -- 69
2020-07-22 18:00:00 24.1 23 Norte 42 Norte 0 -- -- 65
2020-07-22 17:00:00 24.7 24 Noroeste 40 Norte 0 -- -- 62
2020-07-22 16:00:00 25.1 18 Norte 36 Norte 0 -- -- 61
2020-07-22 15:00:00 25.1 22 Norte 37 Norte 0 -- -- 61
2020-07-22 14:00:00 24.7 24 Norte 40 Norte 0 -- -- 63
2020-07-22 13:00:00 24.2 18 Norte 44 Norte 0 -- -- 64
2020-07-22 12:00:00 23.1 28 Norte 43 Noroeste 0 -- -- 68
2020-07-22 11:00:00 22.2 24 Norte 42 Norte 0 -- -- 70
2020-07-22 10:00:00 21 20 Noroeste 34 Noroeste 0 -- -- 74
2020-07-22 09:00:00 19.8 18 Noroeste 35 Noroeste 0 -- -- 79
2020-07-22 08:00:00 19.4 18 Noroeste 46 Noroeste 0 -- -- 81
2020-07-22 07:00:00 19 19 Noroeste 42 Norte 0 -- -- 81
2020-07-22 06:00:00 19.3 27 Noroeste 42 Oeste 0 -- -- 80
2020-07-22 05:00:00 19.4 25 Noroeste 41 Noroeste 0 -- -- 79
2020-07-22 04:00:00 19.6 20 Noroeste 41 Noroeste 0 -- -- 80
2020-07-22 03:00:00 19.8 24 Noroeste 41 Noroeste 0 -- -- 79
2020-07-22 02:00:00 19.7 28 Noroeste 48 Noroeste 0 -- -- 81
2020-07-22 01:00:00 19.5 27 Noroeste 50 Noroeste 0 -- -- 78
2020-07-22 00:00:00 19.5 25 Noroeste 47 Noroeste 0 -- -- 78
2020-07-21 23:00:00 19.5 18 Noroeste 41 Noroeste 0 -- -- 79
2020-07-21 22:00:00 19.6 27 Noroeste 49 Noroeste 0 -- -- 77
2020-07-21 21:00:00 20 19 Noroeste 41 Norte 0 -- -- 75
2020-07-21 20:00:00 21.4 24 Norte 41 Norte 0 -- -- 70
2020-07-21 19:00:00 22.9 25 Norte 43 Norte 0 -- -- 64
2020-07-21 18:00:00 24.1 26 Norte 40 Norte 0 -- -- 60
2020-07-21 17:00:00 24.6 22 Norte 41 Noroeste 0 -- -- 58
2020-07-21 16:00:00 24.6 25 Norte 40 Norte 0 -- -- 58
2020-07-21 15:00:00 24.7 24 Norte 45 Norte 0 -- -- 57
2020-07-21 14:00:00 24.5 24 Norte 41 Noroeste 0 -- -- 57
2020-07-21 13:00:00 24.6 23 Norte 49 Noroeste 0 -- -- 57
2020-07-21 12:00:00 24 15 Norte 39 Noroeste 0 -- -- 61
2020-07-21 11:00:00 22.9 16 Norte 45 Norte 0 -- -- 62
2020-07-21 10:00:00 20.9 28 Norte 51 Noroeste 0 -- -- 69
2020-07-21 09:00:00 19.8 27 Noroeste 44 Noroeste 0 -- -- 74
2020-07-21 08:00:00 18.9 24 Noroeste 48 Noroeste 0 -- -- 78
2020-07-21 07:00:00 19 20 Noroeste 42 Noroeste 0 -- -- 79
2020-07-21 06:00:00 19.3 20 Noroeste 35 Noroeste 0 -- -- 78
2020-07-21 05:00:00 19.3 19 Noroeste 39 Noroeste 0 -- -- 78
2020-07-21 04:00:00 19.4 21 Noroeste 43 Noroeste 0 -- -- 77
2020-07-21 03:00:00 19.3 28 Norte 45 Noroeste 0 -- -- 76
2020-07-21 02:00:00 20.2 32 Norte 48 Norte 0 -- -- 69
2020-07-21 01:00:00 20.2 28 Norte 41 Noroeste 0 -- -- 73
2020-07-21 00:00:00 20.6 23 Norte 48 Norte 0 -- -- 66
2020-07-20 23:00:00 20.2 33 Norte 46 Norte 0 -- -- 72
2020-07-20 22:00:00 20.5 32 Norte 47 Norte 0 -- -- 71
2020-07-20 21:00:00 20.8 24 Norte 42 Norte 0 -- -- 72
2020-07-20 20:00:00 22.4 32 Norte 52 Norte 0 -- -- 66
2020-07-20 19:00:00 23.6 37 Norte 51 Noroeste 0 -- -- 62
2020-07-20 18:00:00 24.8 29 Norte 44 Noroeste 0 -- -- 58
2020-07-20 17:00:00 26.2 22 Noroeste 39 Noroeste 0 -- -- 53
2020-07-20 16:00:00 26.8 25 Noroeste 46 Noroeste 0 -- -- 52
2020-07-20 15:00:00 26.5 25 Norte 41 Norte 0 -- -- 54
2020-07-20 14:00:00 26.5 26 Norte 41 Noroeste 0 -- -- 53
2020-07-20 13:00:00 26.4 24 Norte 38 Norte 0 -- -- 54
2020-07-20 12:00:00 25.7 24 Norte 38 Norte 0 -- -- 57
2020-07-20 11:00:00 25.7 24 Norte 39 Norte 0 -- -- 55
2020-07-20 10:00:00 25.5 27 Norte 39 Norte 0 -- -- 48
2020-07-20 09:00:00 24.5 28 Norte 37 Norte 0 -- -- 47
2020-07-20 08:00:00 26.3 22 Norte 31 Norte 0 -- -- 29
2020-07-20 07:00:00 27.4 16 Noroeste 25 Noroeste 0 -- -- 25
2020-07-20 06:00:00 27.9 17 Noroeste 27 Noroeste 0 -- -- 24
2020-07-20 05:00:00 28.6 12 Noroeste 36 Noroeste 0 -- -- 22
2020-07-20 04:00:00 28.5 15 Norte 27 Norte 0 -- -- 23
2020-07-20 03:00:00 27.4 19 Noroeste 30 Noroeste 0 -- -- 30
2020-07-20 02:00:00 28.9 15 Noroeste 37 Noroeste 0 -- -- 31
2020-07-20 01:00:00 28.7 18 Noroeste 40 Noroeste 0 -- -- 32
2020-07-20 00:00:00 28.9 14 Oeste 37 Noroeste 0 -- -- 30
2020-07-19 23:00:00 28.7 20 Noroeste 39 Noroeste 0 -- -- 34
2020-07-19 22:00:00 28.7 19 Oeste 39 Noroeste 0 -- -- 34
2020-07-19 21:00:00 29.1 23 Noroeste 38 Noroeste 0 -- -- 33
2020-07-19 20:00:00 29.9 23 Noroeste 37 Oeste 0 -- -- 31
2020-07-19 19:00:00 31.9 22 Noroeste 35 Norte 0 -- -- 28
2020-07-19 18:00:00 33.5 20 Norte 33 Noroeste 0 -- -- 25
2020-07-19 17:00:00 35 18 Norte 36 Noroeste 0 -- -- 23
2020-07-19 16:00:00 34.8 19 Noroeste 43 Oeste 0 -- -- 20
2020-07-19 15:00:00 34.7 18 Norte 33 Noroeste 0 -- -- 24
2020-07-19 14:00:00 33.8 21 Noroeste 34 Noroeste 0 -- -- 26
2020-07-19 13:00:00 33.6 24 Norte 35 Norte 0 -- -- 27
2020-07-19 12:00:00 33.6 18 Norte 33 Noroeste 0 -- -- 25
2020-07-19 11:00:00 33.3 16 Norte 30 Norte 0 -- -- 24
2020-07-19 10:00:00 31.3 16 Noroeste 29 Noroeste 0 -- -- 26
2020-07-19 09:00:00 30.3 13 Noroeste 32 Oeste 0 -- -- 27
2020-07-19 08:00:00 27.7 13 Noroeste 22 Noroeste 0 -- -- 29
2020-07-19 07:00:00 27.2 15 Norte 29 Norte 0 -- -- 30
2020-07-19 06:00:00 27.2 13 Norte 23 Norte 0 -- -- 31
2020-07-19 05:00:00 29.8 10 Noroeste 28 Oeste 0 -- -- 30
2020-07-19 04:00:00 30 11 Noroeste 25 Noroeste 0 -- -- 30
2020-07-19 03:00:00 30.4 18 Oeste 28 Oeste 0 -- -- 30
2020-07-19 02:00:00 30.1 12 Noroeste 33 Oeste 0 -- -- 30
2020-07-19 01:00:00 29.9 12 Noroeste 27 Oeste 0 -- -- 30
2020-07-19 00:00:00 30 16 Noroeste 27 Noroeste 0 -- -- 29
2020-07-18 23:00:00 31.5 10 Noroeste 27 Noroeste 0 -- -- 24
2020-07-18 22:00:00 31.7 11 Oeste 24 Noroeste 0 -- -- 22
2020-07-18 21:00:00 32.1 11 Noroeste 26 Noroeste 0 -- -- 22
2020-07-18 20:00:00 32.9 14 Noroeste 28 Noroeste 0 -- -- 23
2020-07-18 19:00:00 33.7 19 Noroeste 32 Norte 0 -- -- 24
2020-07-18 18:00:00 34.7 11 Norte 28 Noroeste 0 -- -- 22
2020-07-18 17:00:00 34.2 15 Norte 30 Norte 0 -- -- 24
2020-07-18 16:00:00 34.5 19 Norte 33 Norte 0 -- -- 27
2020-07-18 15:00:00 34.5 16 Norte 30 Nordeste 0 -- -- 26
2020-07-18 14:00:00 33.9 14 Nordeste 30 Nordeste 0 -- -- 27
2020-07-18 13:00:00 34.2 11 Nordeste 27 Nordeste 0 -- -- 24
2020-07-18 12:00:00 33.4 10 Nordeste 23 Este 0 -- -- 27
2020-07-18 11:00:00 32.1 12 Noroeste 24 Norte 0 -- -- 29
2020-07-18 10:00:00 30 13 Norte 22 Norte 0 -- -- 31
2020-07-18 09:00:00 27.8 5 Nordeste 14 Norte 0 -- -- 35
2020-07-18 08:00:00 25.5 5 Sudoeste 15 Sudoeste 0 -- -- 25
2020-07-18 07:00:00 23.8 7 Oeste 11 Este 0 -- -- 24
2020-07-18 06:00:00 25.6 4 Oeste 10 Sudoeste 0 -- -- 19
2020-07-18 05:00:00 26.3 6 Sudoeste 12 Sudoeste 0 -- -- 16
2020-07-18 04:00:00 26.7 6 Sudoeste 13 Oeste 0 -- -- 15
2020-07-18 03:00:00 26.5 8 Sudoeste 14 Oeste 0 -- -- 14
2020-07-18 02:00:00 25.9 6 Oeste 11 Sudoeste 0 -- -- 16
2020-07-18 01:00:00 25.9 8 Oeste 10 Oeste 0 -- -- 19
2020-07-18 00:00:00 27 5 Oeste 18 Oeste 0 -- -- 19
2020-07-17 23:00:00 28.9 10 Oeste 19 Oeste 0 -- -- 12
2020-07-17 22:00:00 27.3 4 Noroeste 14 Norte 0 -- -- 21
2020-07-17 21:00:00 29.6 10 Norte 22 Norte 0 -- -- 19
2020-07-17 20:00:00 30.8 17 Norte 24 Norte 0 -- -- 18
2020-07-17 19:00:00 30.5 6 Norte 19 Este 0 -- -- 24
2020-07-17 18:00:00 30.8 12 Este 23 Sudeste 0 -- -- 42
2020-07-17 17:00:00 29.6 11 Este 18 Este 0 -- -- 43
2020-07-17 16:00:00 27.4 8 Sudeste 18 Este 0 -- -- 54
2020-07-17 15:00:00 27 10 Este 20 Este 0 -- -- 56
2020-07-17 14:00:00 26.9 11 Este 22 Este 0 -- -- 59
2020-07-17 13:00:00 29.7 11 Este 16 Este 0 -- -- 46
2020-07-17 12:00:00 27.7 10 Este 15 Este 0 -- -- 55
2020-07-17 11:00:00 25.7 6 Este 14 Este 0 -- -- 62
2020-07-17 10:00:00 24.6 6 Este 13 Este 0 -- -- 62
2020-07-17 09:00:00 27.1 5 Oeste 10 Oeste 0 -- -- 34
2020-07-17 08:00:00 23.8 4 Oeste 14 Oeste 0 -- -- 40
2020-07-17 07:00:00 23.5 4 Sudoeste 14 Sudoeste 0 -- -- 41
2020-07-17 06:00:00 23.6 7 Sudoeste 12 Sudoeste 0 -- -- 41
2020-07-17 05:00:00 22.3 7 Oeste 10 Oeste 0 -- -- 46
2020-07-17 04:00:00 19.6 6 Oeste 8 Oeste 0 -- -- 70
2020-07-17 03:00:00 19.7 5 Oeste 7 Oeste 0 -- -- 78
2020-07-17 02:00:00 20.2 0 Calma 6 Este 0 -- -- 78
2020-07-17 01:00:00 20.9 4 Este 7 Este 0 -- -- 75
2020-07-17 00:00:00 21.6 0 Calma 9 Oeste 0 -- -- 72
2020-07-16 23:00:00 21.7 0 Calma 9 Oeste 0 -- -- 71
2020-07-16 22:00:00 22.6 5 Oeste 9 Oeste 0 -- -- 68
2020-07-16 21:00:00 23.6 3 Este 12 Sudeste 0 -- -- 65
2020-07-16 20:00:00 25.2 12 Sudeste 18 Sudeste 0 -- -- 60
2020-07-16 19:00:00 29.6 11 Nordeste 19 Norte 0 -- -- 39
2020-07-16 18:00:00 30.4 10 Norte 23 Norte 0 -- -- 36
2020-07-16 17:00:00 29.6 5 Nordeste 19 Este 0 -- -- 46
2020-07-16 16:00:00 29 10 Este 20 Este 0 -- -- 50
2020-07-16 15:00:00 28.6 10 Nordeste 23 Este 0 -- -- 51
2020-07-16 14:00:00 27.5 10 Nordeste 20 Nordeste 0 -- -- 55
2020-07-16 13:00:00 27.4 9 Nordeste 21 Este 0 -- -- 55
2020-07-16 12:00:00 26.6 10 Este 18 Sudeste 0 -- -- 58
2020-07-16 11:00:00 25.5 10 Sudeste 19 Sudeste 0 -- -- 60
2020-07-16 10:00:00 24.7 6 Norte 16 Norte 0 -- -- 60
2020-07-16 09:00:00 20.9 3 Noroeste 5 Noroeste 0 -- -- 73
2020-07-16 08:00:00 18.2 4 Oeste 6 Oeste 0 -- -- 82
2020-07-16 07:00:00 18.1 4 Oeste 6 Oeste 0 -- -- 82
2020-07-16 06:00:00 18.6 0 Calma 7 Noroeste 0 -- -- 80
2020-07-16 05:00:00 19 5 Oeste 20 Norte 0 -- -- 80
2020-07-16 04:00:00 19.2 12 Norte 18 Noroeste 0 -- -- 81
2020-07-16 03:00:00 19.7 10 Oeste 24 Oeste 0 -- -- 77
2020-07-16 02:00:00 20.1 11 Oeste 23 Noroeste 0 -- -- 75
2020-07-16 01:00:00 21.4 6 Sur 22 Norte 0 -- -- 68
2020-07-16 00:00:00 23 9 Norte 24 Norte 0 -- -- 54
2020-07-15 23:00:00 22 12 Norte 27 Norte 0 -- -- 64
2020-07-15 22:00:00 21.9 15 Norte 35 Norte 0 -- -- 68
2020-07-15 21:00:00 21.7 22 Norte 39 Norte 0 -- -- 71
2020-07-15 20:00:00 22.8 28 Norte 39 Noroeste 0 -- -- 69
2020-07-15 19:00:00 23.9 22 Norte 41 Noroeste 0 -- -- 66
2020-07-15 18:00:00 25.1 28 Norte 40 Norte 0 -- -- 61
2020-07-15 17:00:00 25.6 26 Norte 45 Norte 0 -- -- 60
2020-07-15 16:00:00 26.3 25 Norte 43 Norte 0 -- -- 58
2020-07-15 15:00:00 27.2 27 Norte 38 Norte 0 -- -- 54
2020-07-15 14:00:00 27.9 21 Norte 35 Norte 0 -- -- 51
2020-07-15 13:00:00 28.1 21 Norte 37 Noroeste 0 -- -- 49
2020-07-15 12:00:00 28.2 22 Norte 36 Noroeste 0 -- -- 42
2020-07-15 11:00:00 28.4 19 Norte 31 Noroeste 0 -- -- 37
2020-07-15 10:00:00 26.8 18 Norte 32 Norte 0 -- -- 41
2020-07-15 09:00:00 25.8 19 Norte 31 Noroeste 0 -- -- 40
2020-07-15 08:00:00 25.4 17 Noroeste 32 Norte 0 -- -- 34
2020-07-15 07:00:00 24 17 Norte 29 Noroeste 0 -- -- 35
2020-07-15 06:00:00 25.9 15 Noroeste 32 Oeste 0 -- -- 27
2020-07-15 05:00:00 26.5 16 Noroeste 32 Noroeste 0 -- -- 33
2020-07-15 04:00:00 26.2 18 Oeste 45 Oeste 0 -- -- 36
2020-07-15 03:00:00 26.3 16 Noroeste 44 Oeste 0 -- -- 36
2020-07-15 02:00:00 26.8 19 Oeste 37 Oeste 0 -- -- 34
2020-07-15 01:00:00 26.4 17 Oeste 36 Oeste 0 -- -- 34
2020-07-15 00:00:00 26 15 Noroeste 39 Noroeste 0 -- -- 35